createdAt,value
2018-06-24T00:04:53.264Z,97525.11
2018-06-24T00:09:47.784Z,97519.34
2018-06-24T00:14:42.341Z,97524.95
2018-06-24T00:19:36.827Z,97520.12
2018-06-24T00:24:31.353Z,97520.76
2018-06-24T00:29:25.823Z,97512.48
2018-06-24T00:34:20.388Z,97512.67
2018-06-24T00:39:14.584Z,97507.11
2018-06-24T00:44:09.186Z,97510.96
2018-06-24T00:49:03.773Z,97505.05
2018-06-24T00:53:58.295Z,97505.16
2018-06-24T00:58:52.833Z,97504.06
2018-06-24T01:03:47.377Z,97497.73
2018-06-24T01:08:41.858Z,97496.57
2018-06-24T01:13:36.392Z,97488.98
2018-06-24T01:18:30.933Z,97481.94
2018-06-24T01:23:25.541Z,97483.87
2018-06-24T01:28:20.053Z,97473.59
2018-06-24T01:33:14.657Z,97476.34
2018-06-24T01:38:09.206Z,97462.75
2018-06-24T01:43:03.736Z,97462.14
2018-06-24T01:47:58.202Z,97465.81
2018-06-24T01:52:52.708Z,97461.39
2018-06-24T01:57:47.209Z,97459.16
2018-06-24T02:02:41.717Z,97448.44
2018-06-24T02:07:36.267Z,97445.45
2018-06-24T02:12:30.783Z,97440.56
2018-06-24T02:17:25.271Z,97443.08
2018-06-24T02:22:19.804Z,97435.11
2018-06-24T02:27:14.323Z,97434.28
2018-06-24T02:32:08.885Z,97443.69
2018-06-24T02:37:03.365Z,97438.87
2018-06-24T02:41:57.863Z,97435.27
2018-06-24T02:46:52.396Z,97425.09
2018-06-24T02:51:46.887Z,97429.70
2018-06-24T02:56:41.484Z,97429.88
2018-06-24T03:01:36.288Z,97422.41
2018-06-24T03:06:30.757Z,97421.09
2018-06-24T03:11:25.289Z,97425.14
2018-06-24T03:16:19.802Z,97428.14
2018-06-24T03:21:14.312Z,97426.56
2018-06-24T03:26:08.547Z,97424.49
2018-06-24T03:31:03.025Z,97430.72
2018-06-24T03:35:57.633Z,97429.62
2018-06-24T03:40:52.132Z,97426.23
2018-06-24T03:45:46.628Z,97414.18
2018-06-24T03:50:41.158Z,97420.34
2018-06-24T03:55:35.759Z,97417.94
2018-06-24T04:00:30.325Z,97405.99
2018-06-24T04:05:24.880Z,97409.03
2018-06-24T04:10:19.568Z,97418.56
2018-06-24T04:15:14.258Z,97415.66
2018-06-24T04:20:08.881Z,97410.67
2018-06-24T04:25:03.415Z,97417.28
2018-06-24T04:29:57.961Z,97419.75
2018-06-24T04:34:52.488Z,97411.47
2018-06-24T04:39:46.975Z,97408.80
2018-06-24T04:44:41.615Z,97402.66
2018-06-24T04:49:36.208Z,97397.00
2018-06-24T04:54:30.677Z,97396.05
2018-06-24T04:59:25.164Z,97388.42
2018-06-24T05:04:19.652Z,97391.71
2018-06-24T05:10:44.042Z,97396.35
2018-06-24T05:15:38.729Z,97401.66
2018-06-24T05:20:33.236Z,97392.78
2018-06-24T05:25:27.746Z,97399.52
2018-06-24T05:30:22.258Z,97392.13
2018-06-24T05:35:16.735Z,97386.37
2018-06-24T05:40:11.301Z,97386.45
2018-06-24T05:45:05.944Z,97381.09
2018-06-24T05:50:00.524Z,97378.46
2018-06-24T05:54:55.073Z,97377.67
2018-06-24T05:59:49.696Z,97382.97
2018-06-24T06:04:49.728Z,97370.47
2018-06-24T06:09:44.297Z,97376.53
2018-06-24T06:14:38.864Z,97372.53
2018-06-24T06:19:33.721Z,97373.81
2018-06-24T06:24:28.547Z,97372.27
2018-06-24T06:29:23.061Z,97375.14
2018-06-24T06:34:17.497Z,97373.03
2018-06-24T06:39:12.018Z,97372.92
2018-06-24T06:44:06.467Z,97368.21
2018-06-24T06:49:00.993Z,97364.56
2018-06-24T06:53:55.597Z,97363.78
2018-06-24T06:58:50.176Z,97362.20
2018-06-24T07:03:45.201Z,97350.69
2018-06-24T07:08:39.745Z,97352.48
2018-06-24T07:13:34.211Z,97338.08
2018-06-24T07:18:28.798Z,97348.77
2018-06-24T07:23:23.417Z,97348.61
2018-06-24T07:28:18.056Z,97355.42
2018-06-24T07:33:12.571Z,97351.28
2018-06-24T07:38:07.271Z,97345.72
2018-06-24T07:43:01.891Z,97348.87
2018-06-24T07:47:56.554Z,97334.24
2018-06-24T07:52:51.126Z,97335.56
2018-06-24T07:57:45.851Z,97335.31
2018-06-24T08:02:40.476Z,97338.36
2018-06-24T08:07:36.634Z,97330.68
2018-06-24T08:12:31.184Z,97331.57
2018-06-24T08:17:25.714Z,97324.52
2018-06-24T08:22:19.983Z,97322.16
2018-06-24T08:27:14.465Z,97316.79
2018-06-24T08:32:09.073Z,97316.95
2018-06-24T08:37:03.893Z,97309.70
2018-06-24T08:41:58.424Z,97295.97
2018-06-24T08:46:53.010Z,97291.22
2018-06-24T08:51:47.578Z,97294.87
2018-06-24T08:56:42.409Z,97294.28
2018-06-24T09:01:37.022Z,97298.87
2018-06-24T09:06:31.539Z,97296.47
2018-06-24T09:11:26.274Z,97286.51
2018-06-24T09:16:20.973Z,97291.33
2018-06-24T09:21:16.214Z,97294.05
2018-06-24T09:26:10.900Z,97305.50
2018-06-24T09:31:05.610Z,97312.19
2018-06-24T09:36:00.203Z,97315.87
2018-06-24T09:40:55.179Z,97304.38
2018-06-24T09:45:49.821Z,97308.84
2018-06-24T09:50:44.341Z,97307.75
2018-06-24T09:55:39.162Z,97302.18
2018-06-24T10:00:33.701Z,97288.00
2018-06-24T10:05:28.180Z,97283.28
2018-06-24T10:10:22.763Z,97280.48
2018-06-24T10:15:17.328Z,97272.52
2018-06-24T10:20:12.669Z,97277.61
2018-06-24T10:25:07.254Z,97277.19
2018-06-24T10:30:01.930Z,97278.03
2018-06-24T10:34:56.504Z,97269.84
2018-06-24T10:39:51.025Z,97274.16
2018-06-24T10:44:45.524Z,97261.68
2018-06-24T10:49:40.253Z,97251.94
2018-06-24T10:54:34.975Z,97257.98
2018-06-24T10:59:29.550Z,97251.17
2018-06-24T11:04:24.083Z,97248.61
2018-06-24T11:09:18.636Z,97258.93
2018-06-24T11:14:13.223Z,97255.15
2018-06-24T11:19:07.920Z,97249.36
2018-06-24T11:24:02.429Z,97240.91
2018-06-24T11:28:56.986Z,97237.80
2018-06-24T11:33:51.527Z,97217.66
2018-06-24T11:38:45.995Z,97201.90
2018-06-24T11:43:40.238Z,97204.73
2018-06-24T11:48:34.830Z,97209.20
2018-06-24T11:53:29.359Z,97203.39
2018-06-24T11:58:23.877Z,97204.80
2018-06-24T12:03:18.383Z,97204.73
2018-06-24T12:08:12.927Z,97194.07
2018-06-24T12:13:07.468Z,97198.77
2018-06-24T12:18:02.081Z,97191.73
2018-06-24T12:22:56.672Z,97183.38
2018-06-24T12:27:51.181Z,97180.32
2018-06-24T12:32:45.689Z,97189.81
2018-06-24T12:37:40.190Z,97185.78
2018-06-24T12:42:34.809Z,97179.11
2018-06-24T12:47:29.421Z,97186.62
2018-06-24T12:52:24.049Z,97170.55
2018-06-24T12:57:18.997Z,97165.22
2018-06-24T13:02:13.535Z,97158.64
2018-06-24T13:07:08.171Z,97169.81
2018-06-24T13:12:02.707Z,97171.08
2018-06-24T13:16:57.258Z,97157.86
2018-06-24T13:21:51.920Z,97156.64
2018-06-24T13:26:46.552Z,97153.23
2018-06-24T13:31:41.208Z,97152.61
2018-06-24T13:36:35.802Z,97158.80
2018-06-24T13:41:30.356Z,97150.75
2018-06-24T13:46:25.757Z,97155.13
2018-06-24T13:51:20.455Z,97145.09
2018-06-24T13:56:15.081Z,97149.97
2018-06-24T14:01:09.605Z,97137.05
2018-06-24T14:06:04.642Z,97131.03
2018-06-24T14:10:59.176Z,97139.03
2018-06-24T14:15:53.832Z,97140.65
2018-06-24T14:20:48.413Z,97136.55
2018-06-24T14:25:43.048Z,97143.66
2018-06-24T14:30:37.624Z,97137.05
2018-06-24T14:35:32.320Z,97134.28
2018-06-24T14:40:26.964Z,97131.57
2018-06-24T14:45:21.556Z,97139.74
2018-06-24T14:50:16.121Z,97139.53
2018-06-24T14:55:10.650Z,97138.28
2018-06-24T15:00:05.984Z,97146.55
2018-06-24T15:05:00.551Z,97141.03
2018-06-24T15:09:55.104Z,97132.72
2018-06-24T15:14:49.714Z,97128.26
2018-06-24T15:19:44.212Z,97122.43
2018-06-24T15:24:40.165Z,97124.24
2018-06-24T15:29:34.697Z,97122.94
2018-06-24T15:34:29.551Z,97112.06
2018-06-24T15:39:23.986Z,97117.63
2018-06-24T15:44:18.504Z,97122.80
2018-06-24T15:49:13.289Z,97117.92
2018-06-24T15:54:07.858Z,97122.23
2018-06-24T15:59:02.445Z,97109.34
2018-06-24T16:03:57.121Z,97113.44
2018-06-24T16:08:51.672Z,97109.17
2018-06-24T16:13:46.266Z,97108.27
2018-06-24T16:18:41.384Z,97102.69
2018-06-24T16:23:36.272Z,97107.78
2018-06-24T16:28:31.918Z,97109.38
2018-06-24T16:33:26.466Z,97114.31
2018-06-24T16:38:21.147Z,97109.44
2018-06-24T16:43:15.790Z,97115.58
2018-06-24T16:48:10.318Z,97123.01
2018-06-24T16:53:05.053Z,97123.56
2018-06-24T16:57:59.651Z,97127.73
2018-06-24T17:02:54.140Z,97121.70
2018-06-24T17:07:48.784Z,97124.15
2018-06-24T17:12:43.409Z,97136.18
2018-06-24T17:17:37.951Z,97137.30
2018-06-24T17:22:32.482Z,97149.53
2018-06-24T17:27:28.555Z,97139.03
2018-06-24T17:32:23.131Z,97143.44
2018-06-24T17:37:17.954Z,97155.53
2018-06-24T17:42:12.565Z,97150.11
2018-06-24T17:47:07.285Z,97160.46
2018-06-24T17:52:02.533Z,97165.95
2018-06-24T17:56:57.273Z,97169.39
2018-06-24T18:01:51.648Z,97165.48
2018-06-24T18:06:46.613Z,97168.38
2018-06-24T18:11:41.727Z,97179.83
2018-06-24T18:16:36.667Z,97167.91
2018-06-24T18:21:31.321Z,97177.62
2018-06-24T18:26:26.436Z,97175.73
2018-06-24T18:31:21.037Z,97171.73
2018-06-24T18:36:15.668Z,97177.44
2018-06-24T18:41:09.911Z,97186.20
2018-06-24T18:46:04.597Z,97189.43
2018-06-24T18:50:59.206Z,97191.04
2018-06-24T18:55:53.724Z,97199.84
2018-06-24T19:00:48.359Z,97193.50
2018-06-24T19:05:42.904Z,97203.60
2018-06-24T19:10:37.133Z,97206.55
2018-06-24T19:15:31.711Z,97207.36
2018-06-24T19:20:27.135Z,97213.95
2018-06-24T19:25:21.749Z,97220.06
2018-06-24T19:30:16.185Z,97230.42
2018-06-24T19:35:10.773Z,97238.35
2018-06-24T19:40:06.855Z,97245.53
2018-06-24T19:45:01.336Z,97243.39
2018-06-24T19:49:55.918Z,97236.73
2018-06-24T19:54:50.493Z,97242.55
2018-06-24T19:59:45.475Z,97249.73
2018-06-24T20:04:40.074Z,97253.17
2018-06-24T20:09:34.516Z,97257.91
2018-06-24T20:14:29.080Z,97261.09
2018-06-24T20:19:23.593Z,97267.44
2018-06-24T20:24:18.348Z,97270.09
2018-06-24T20:29:12.993Z,97266.64
2018-06-24T20:34:07.521Z,97268.59
2018-06-24T20:39:02.036Z,97267.22
2018-06-24T20:43:56.589Z,97274.13
2018-06-24T20:48:51.076Z,97278.13
2018-06-24T20:53:45.582Z,97276.30
2018-06-24T20:58:40.128Z,97278.11
2018-06-24T21:03:34.678Z,97274.42
2018-06-24T21:08:29.300Z,97279.22
2018-06-24T21:13:23.803Z,97278.94
2018-06-24T21:18:18.320Z,97279.42
2018-06-24T21:23:12.826Z,97270.43
2018-06-24T21:28:07.329Z,97266.17
2018-06-24T21:33:01.781Z,97270.69
2018-06-24T21:37:56.328Z,97276.98
2018-06-24T21:42:50.851Z,97273.25
2018-06-24T21:47:45.347Z,97269.27
2018-06-24T21:52:39.867Z,97276.45
2018-06-24T21:57:34.425Z,97271.67
2018-06-24T22:02:28.936Z,97272.20
2018-06-24T22:07:24.418Z,97276.23
2018-06-24T22:12:18.981Z,97274.04
2018-06-24T22:17:13.596Z,97268.21
2018-06-24T22:22:08.114Z,97273.47
2018-06-24T22:27:02.688Z,97277.19
2018-06-24T22:31:57.183Z,97270.77
2018-06-24T22:36:51.740Z,97272.98
2018-06-24T22:41:46.221Z,97271.80
2018-06-24T22:46:40.869Z,97265.66
2018-06-24T22:51:35.420Z,97272.33
2018-06-24T22:56:29.877Z,97274.12
2018-06-24T23:01:24.368Z,97280.94
2018-06-24T23:06:18.792Z,97267.72
2018-06-24T23:11:13.344Z,97282.69
2018-06-24T23:16:08.020Z,97288.28
2018-06-24T23:21:02.474Z,97288.81
2018-06-24T23:25:56.961Z,97276.28
2018-06-24T23:30:51.432Z,97274.66
2018-06-24T23:35:45.902Z,97277.28
2018-06-24T23:40:40.345Z,97264.64
2018-06-24T23:45:34.811Z,97268.41
2018-06-24T23:50:29.287Z,97270.52
2018-06-24T23:55:23.741Z,97265.19
